sensor_id;sensor_type;location;lat;lon;timestamp;pressure;altitude;pressure_sealevel;temperature;humidity
42105;BME280;70664;51.472;5.712;2023-07-08T00:00:51;101483.94;;;21.94;55.26
42105;BME280;70664;51.472;5.712;2023-07-08T00:03:18;101465.66;;;21.93;55.41
42105;BME280;70664;51.472;5.712;2023-07-08T00:05:46;101476.13;;;21.93;55.48
42105;BME280;70664;51.472;5.712;2023-07-08T00:08:17;101475.22;;;21.94;55.24
42105;BME280;70664;51.472;5.712;2023-07-08T00:10:44;101476.13;;;21.93;55.58
42105;BME280;70664;51.472;5.712;2023-07-08T00:13:11;101480.47;;;21.94;55.64
42105;BME280;70664;51.472;5.712;2023-07-08T00:15:39;101474.38;;;21.93;55.40
42105;BME280;70664;51.472;5.712;2023-07-08T00:18:16;101463.03;;;21.93;55.26
42105;BME280;70664;51.472;5.712;2023-07-08T00:20:48;101463.03;;;21.93;55.15
42105;BME280;70664;51.472;5.712;2023-07-08T00:23:15;101465.66;;;21.93;55.67
42105;BME280;70664;51.472;5.712;2023-07-08T00:25:41;101467.44;;;21.92;55.61
42105;BME280;70664;51.472;5.712;2023-07-08T00:28:17;101463.94;;;21.92;55.55
42105;BME280;70664;51.472;5.712;2023-07-08T00:30:44;101468.28;;;21.93;55.63
42105;BME280;70664;51.472;5.712;2023-07-08T00:33:10;101462.19;;;21.92;55.52
42105;BME280;70664;51.472;5.712;2023-07-08T00:35:37;101461.31;;;21.92;55.28
42105;BME280;70664;51.472;5.712;2023-07-08T00:43:54;101449.16;;;21.91;55.33
42105;BME280;70664;51.472;5.712;2023-07-08T00:52:27;101446.53;;;21.91;55.38
42105;BME280;70664;51.472;5.712;2023-07-08T00:54:59;101452.63;;;21.91;55.36
42105;BME280;70664;51.472;5.712;2023-07-08T00:57:33;101448.31;;;21.90;55.58
42105;BME280;70664;51.472;5.712;2023-07-08T01:00:11;101441.34;;;21.89;55.74
42105;BME280;70664;51.472;5.712;2023-07-08T01:02:53;101442.19;;;21.90;55.47
42105;BME280;70664;51.472;5.712;2023-07-08T01:05:25;101450.03;;;21.91;55.72
42105;BME280;70664;51.472;5.712;2023-07-08T01:07:57;101446.53;;;21.91;55.71
42105;BME280;70664;51.472;5.712;2023-07-08T01:10:36;101447.44;;;21.90;55.50
42105;BME280;70664;51.472;5.712;2023-07-08T01:13:06;101441.34;;;21.89;55.81
42105;BME280;70664;51.472;5.712;2023-07-08T01:15:41;101444.81;;;21.90;55.76
42105;BME280;70664;51.472;5.712;2023-07-08T01:18:09;101438.75;;;21.89;55.54
42105;BME280;70664;51.472;5.712;2023-07-08T01:20:39;101438.75;;;21.89;55.68
42105;BME280;70664;51.472;5.712;2023-07-08T01:23:05;101437.03;;;21.88;55.86
42105;BME280;70664;51.472;5.712;2023-07-08T01:25:32;101443.09;;;21.89;55.76
42105;BME280;70664;51.472;5.712;2023-07-08T01:27:59;101444.88;;;21.88;55.80
42105;BME280;70664;51.472;5.712;2023-07-08T01:30:26;101441.44;;;21.88;56.10
42105;BME280;70664;51.472;5.712;2023-07-08T01:33:03;101440.50;;;21.89;55.57
42105;BME280;70664;51.472;5.712;2023-07-08T01:35:30;101439.66;;;21.88;55.75
42105;BME280;70664;51.472;5.712;2023-07-08T01:38:02;101431.78;;;21.88;55.70
42105;BME280;70664;51.472;5.712;2023-07-08T01:40:33;101435.25;;;21.89;55.82
42105;BME280;70664;51.472;5.712;2023-07-08T01:43:01;101423.09;;;21.88;55.87
42105;BME280;70664;51.472;5.712;2023-07-08T01:45:33;101432.69;;;21.87;55.65
42105;BME280;70664;51.472;5.712;2023-07-08T01:48:05;101424.84;;;21.87;55.97
42105;BME280;70664;51.472;5.712;2023-07-08T01:50:36;101425.72;;;21.88;55.80
42105;BME280;70664;51.472;5.712;2023-07-08T01:53:11;101418.78;;;21.87;55.74
42105;BME280;70664;51.472;5.712;2023-07-08T01:55:38;101417.00;;;21.87;55.84
42105;BME280;70664;51.472;5.712;2023-07-08T01:58:04;101417.00;;;21.87;55.90
42105;BME280;70664;51.472;5.712;2023-07-08T02:00:30;101411.75;;;21.87;56.25
42105;BME280;70664;51.472;5.712;2023-07-08T02:02:56;101409.16;;;21.87;55.80
42105;BME280;70664;51.472;5.712;2023-07-08T02:05:23;101395.22;;;21.87;56.29
42105;BME280;70664;51.472;5.712;2023-07-08T02:07:49;101402.19;;;21.86;55.88
42105;BME280;70664;51.472;5.712;2023-07-08T02:10:16;101400.44;;;21.87;56.10
42105;BME280;70664;51.472;5.712;2023-07-08T02:12:42;101395.22;;;21.87;56.09
42105;BME280;70664;51.472;5.712;2023-07-08T02:15:10;101397.84;;;21.87;56.00
42105;BME280;70664;51.472;5.712;2023-07-08T02:17:36;101391.72;;;21.86;56.03
42105;BME280;70664;51.472;5.712;2023-07-08T02:20:02;101393.50;;;21.85;56.21
42105;BME280;70664;51.472;5.712;2023-07-08T02:22:29;101390.88;;;21.85;56.27
42105;BME280;70664;51.472;5.712;2023-07-08T02:24:54;101386.56;;;21.84;56.15
42105;BME280;70664;51.472;5.712;2023-07-08T02:27:20;101386.50;;;21.86;55.98
42105;BME280;70664;51.472;5.712;2023-07-08T02:29:46;101383.88;;;21.86;55.98
42105;BME280;70664;51.472;5.712;2023-07-08T02:32:12;101367.38;;;21.84;55.93
42105;BME280;70664;51.472;5.712;2023-07-08T02:34:38;101374.31;;;21.85;56.23
42105;BME280;70664;51.472;5.712;2023-07-08T02:37:04;101380.41;;;21.85;56.20
42105;BME280;70664;51.472;5.712;2023-07-08T02:39:30;101373.50;;;21.83;56.38
42105;BME280;70664;51.472;5.712;2023-07-08T02:41:56;101371.75;;;21.83;56.36
42105;BME280;70664;51.472;5.712;2023-07-08T02:44:22;101369.06;;;21.85;56.34
42105;BME280;70664;51.472;5.712;2023-07-08T02:46:48;101367.38;;;21.84;56.06
42105;BME280;70664;51.472;5.712;2023-07-08T02:49:14;101365.63;;;21.84;56.34
42105;BME280;70664;51.472;5.712;2023-07-08T02:51:39;101368.28;;;21.83;56.00
42105;BME280;70664;51.472;5.712;2023-07-08T02:54:05;101369.16;;;21.83;56.00
42105;BME280;70664;51.472;5.712;2023-07-08T02:56:31;101371.75;;;21.83;56.38
42105;BME280;70664;51.472;5.712;2023-07-08T02:58:57;101371.75;;;21.83;56.32
42105;BME280;70664;51.472;5.712;2023-07-08T03:01:23;101376.13;;;21.83;56.38
42105;BME280;70664;51.472;5.712;2023-07-08T03:03:49;101376.13;;;21.83;56.37
42105;BME280;70664;51.472;5.712;2023-07-08T03:06:15;101389.22;;;21.83;56.50
42105;BME280;70664;51.472;5.712;2023-07-08T03:08:41;101388.38;;;21.82;56.57
42105;BME280;70664;51.472;5.712;2023-07-08T03:11:12;101390.13;;;21.82;55.99
42105;BME280;70664;51.472;5.712;2023-07-08T03:13:38;101388.38;;;21.82;56.59
42105;BME280;70664;51.472;5.712;2023-07-08T03:16:04;101397.13;;;21.81;56.17
42105;BME280;70664;51.472;5.712;2023-07-08T03:18:39;101389.22;;;21.83;56.07
42105;BME280;70664;51.472;5.712;2023-07-08T03:21:14;101383.13;;;21.82;56.13
42105;BME280;70664;51.472;5.712;2023-07-08T03:23:40;101388.38;;;21.82;56.05
42105;BME280;70664;51.472;5.712;2023-07-08T03:26:07;101396.25;;;21.81;56.26
42105;BME280;70664;51.472;5.712;2023-07-08T03:28:34;101392.75;;;21.82;56.12
42105;BME280;70664;51.472;5.712;2023-07-08T03:30:59;101389.28;;;21.81;56.12
42105;BME280;70664;51.472;5.712;2023-07-08T03:33:25;101384.88;;;21.82;56.30
42105;BME280;70664;51.472;5.712;2023-07-08T03:35:51;101386.66;;;21.81;56.24
42105;BME280;70664;51.472;5.712;2023-07-08T03:38:17;101394.53;;;21.81;56.23
42105;BME280;70664;51.472;5.712;2023-07-08T03:40:42;101398.88;;;21.81;56.15
42105;BME280;70664;51.472;5.712;2023-07-08T03:43:09;101398.03;;;21.80;56.31
42105;BME280;70664;51.472;5.712;2023-07-08T03:45:35;101400.66;;;21.80;56.00
42105;BME280;70664;51.472;5.712;2023-07-08T03:48:01;101400.66;;;21.80;56.40
42105;BME280;70664;51.472;5.712;2023-07-08T03:50:28;101403.28;;;21.80;55.96
42105;BME280;70664;51.472;5.712;2023-07-08T03:52:55;101400.66;;;21.80;56.14
42105;BME280;70664;51.472;5.712;2023-07-08T03:55:22;101399.78;;;21.80;56.52
42105;BME280;70664;51.472;5.712;2023-07-08T03:57:48;101397.16;;;21.80;56.05
42105;BME280;70664;51.472;5.712;2023-07-08T04:00:14;101397.16;;;21.80;56.34
42105;BME280;70664;51.472;5.712;2023-07-08T04:02:44;101397.25;;;21.78;56.30
42105;BME280;70664;51.472;5.712;2023-07-08T04:05:19;101406.81;;;21.79;56.12
42105;BME280;70664;51.472;5.712;2023-07-08T04:07:45;101412.88;;;21.80;56.16
42105;BME280;70664;51.472;5.712;2023-07-08T04:10:13;101409.41;;;21.79;56.16
42105;BME280;70664;51.472;5.712;2023-07-08T04:12:39;101412.03;;;21.79;56.55
42105;BME280;70664;51.472;5.712;2023-07-08T04:15:08;101402.47;;;21.78;56.14
42105;BME280;70664;51.472;5.712;2023-07-08T04:17:43;101407.63;;;21.80;56.51
42105;BME280;70664;51.472;5.712;2023-07-08T04:20:13;101403.38;;;21.77;56.51
42105;BME280;70664;51.472;5.712;2023-07-08T04:22:40;101419.03;;;21.79;56.19
42105;BME280;70664;51.472;5.712;2023-07-08T04:25:06;101413.78;;;21.79;56.56
42105;BME280;70664;51.472;5.712;2023-07-08T04:27:32;101412.03;;;21.79;56.50
42105;BME280;70664;51.472;5.712;2023-07-08T04:29:58;101409.41;;;21.79;56.39
42105;BME280;70664;51.472;5.712;2023-07-08T04:32:24;101405.09;;;21.78;56.47
42105;BME280;70664;51.472;5.712;2023-07-08T04:34:51;101404.19;;;21.79;56.74
42105;BME280;70664;51.472;5.712;2023-07-08T04:37:17;101407.72;;;21.78;56.67
42105;BME280;70664;51.472;5.712;2023-07-08T04:39:45;101401.56;;;21.79;56.54
42105;BME280;70664;51.472;5.712;2023-07-08T04:42:11;101398.06;;;21.79;56.60
42105;BME280;70664;51.472;5.712;2023-07-08T04:44:41;101409.41;;;21.79;56.15
42105;BME280;70664;51.472;5.712;2023-07-08T04:47:07;101411.16;;;21.79;56.58
42105;BME280;70664;51.472;5.712;2023-07-08T04:49:39;101405.09;;;21.78;56.39
42105;BME280;70664;51.472;5.712;2023-07-08T04:52:06;101403.38;;;21.77;56.27
42105;BME280;70664;51.472;5.712;2023-07-08T04:54:32;101401.59;;;21.78;56.34
42105;BME280;70664;51.472;5.712;2023-07-08T04:56:58;101405.09;;;21.78;56.35
42105;BME280;70664;51.472;5.712;2023-07-08T04:59:25;101411.16;;;21.79;56.43
42105;BME280;70664;51.472;5.712;2023-07-08T05:01:52;101415.50;;;21.80;56.31
42105;BME280;70664;51.472;5.712;2023-07-08T05:04:21;101405.94;;;21.79;56.50
42105;BME280;70664;51.472;5.712;2023-07-08T05:06:48;101407.63;;;21.80;56.44
42105;BME280;70664;51.472;5.712;2023-07-08T05:09:14;101403.28;;;21.80;56.54
42105;BME280;70664;51.472;5.712;2023-07-08T05:11:40;101406.72;;;21.81;56.37
42105;BME280;70664;51.472;5.712;2023-07-08T05:14:06;101408.44;;;21.82;55.97
42105;BME280;70664;51.472;5.712;2023-07-08T05:16:34;101411.94;;;21.82;56.31
42105;BME280;70664;51.472;5.712;2023-07-08T05:19:02;101415.38;;;21.83;56.38
42105;BME280;70664;51.472;5.712;2023-07-08T05:21:29;101413.66;;;21.83;56.24
42105;BME280;70664;51.472;5.712;2023-07-08T05:24:02;101404.13;;;21.81;56.01
42105;BME280;70664;51.472;5.712;2023-07-08T05:26:28;101405.81;;;21.82;56.10
42105;BME280;70664;51.472;5.712;2023-07-08T05:28:54;101401.50;;;21.81;56.46
42105;BME280;70664;51.472;5.712;2023-07-08T05:31:20;101403.22;;;21.82;56.58
42105;BME280;70664;51.472;5.712;2023-07-08T05:33:46;101405.03;;;21.80;56.51
42105;BME280;70664;51.472;5.712;2023-07-08T05:36:11;101396.34;;;21.79;56.66
42105;BME280;70664;51.472;5.712;2023-07-08T05:38:37;101404.19;;;21.79;56.62
42105;BME280;70664;51.472;5.712;2023-07-08T05:41:03;101396.34;;;21.79;56.49
42105;BME280;70664;51.472;5.712;2023-07-08T05:43:29;101397.25;;;21.78;56.71
42105;BME280;70664;51.472;5.712;2023-07-08T05:46:00;101406.81;;;21.79;56.59
42105;BME280;70664;51.472;5.712;2023-07-08T05:48:26;101405.91;;;21.80;56.39
42105;BME280;70664;51.472;5.712;2023-07-08T05:50:52;101403.28;;;21.80;56.59
42105;BME280;70664;51.472;5.712;2023-07-08T05:53:19;101403.28;;;21.80;56.65
42105;BME280;70664;51.472;5.712;2023-07-08T05:55:49;101407.63;;;21.80;56.75
42105;BME280;70664;51.472;5.712;2023-07-08T05:58:15;101407.63;;;21.80;57.01
42105;BME280;70664;51.472;5.712;2023-07-08T06:00:44;101397.25;;;21.78;56.78
42105;BME280;70664;51.472;5.712;2023-07-08T06:03:11;101405.09;;;21.78;56.52
42105;BME280;70664;51.472;5.712;2023-07-08T06:05:38;101405.81;;;21.82;56.57
42105;BME280;70664;51.472;5.712;2023-07-08T06:08:05;101406.63;;;21.84;56.79
42105;BME280;70664;51.472;5.712;2023-07-08T06:10:31;101412.66;;;21.86;56.13
42105;BME280;70664;51.472;5.712;2023-07-08T06:12:57;101420.47;;;21.88;56.20
42105;BME280;70664;51.472;5.712;2023-07-08T06:15:23;101412.63;;;21.88;56.41
42105;BME280;70664;51.472;5.712;2023-07-08T06:17:49;101414.38;;;21.87;55.91
42105;BME280;70664;51.472;5.712;2023-07-08T06:20:15;101414.28;;;21.90;56.27
42105;BME280;70664;51.472;5.712;2023-07-08T06:22:40;101410.13;;;21.84;55.98
42105;BME280;70664;51.472;5.712;2023-07-08T06:25:07;101408.34;;;21.85;56.19
42105;BME280;70664;51.472;5.712;2023-07-08T06:27:33;101408.25;;;21.88;56.00
42105;BME280;70664;51.472;5.712;2023-07-08T06:29:59;101408.34;;;21.85;56.12
42105;BME280;70664;51.472;5.712;2023-07-08T06:32:25;101409.22;;;21.85;56.16
42105;BME280;70664;51.472;5.712;2023-07-08T06:34:50;101414.47;;;21.84;55.93
42105;BME280;70664;51.472;5.712;2023-07-08T06:37:16;101415.28;;;21.86;56.16
42105;BME280;70664;51.472;5.712;2023-07-08T06:39:42;101414.38;;;21.87;56.12
42105;BME280;70664;51.472;5.712;2023-07-08T06:42:08;101416.09;;;21.88;56.20
42105;BME280;70664;51.472;5.712;2023-07-08T06:44:33;101421.41;;;21.87;56.23
42105;BME280;70664;51.472;5.712;2023-07-08T06:46:59;101410.91;;;21.87;56.26
42105;BME280;70664;51.472;5.712;2023-07-08T06:49:25;101410.84;;;21.88;56.17
42105;BME280;70664;51.472;5.712;2023-07-08T06:51:51;101407.34;;;21.89;56.12
42105;BME280;70664;51.472;5.712;2023-07-08T06:54:16;101413.41;;;21.90;56.11
42105;BME280;70664;51.472;5.712;2023-07-08T06:56:42;101418.59;;;21.91;55.77
42105;BME280;70664;51.472;5.712;2023-07-08T06:59:08;101419.50;;;21.90;56.22
42105;BME280;70664;51.472;5.712;2023-07-08T07:01:35;101419.50;;;21.90;56.07
42105;BME280;70664;51.472;5.712;2023-07-08T07:04:03;101416.91;;;21.90;56.11
42105;BME280;70664;51.472;5.712;2023-07-08T07:06:29;101417.72;;;21.91;55.88
42105;BME280;70664;51.472;5.712;2023-07-08T07:08:55;101410.78;;;21.90;56.00
42105;BME280;70664;51.472;5.712;2023-07-08T07:11:21;101405.56;;;21.90;56.21
42105;BME280;70664;51.472;5.712;2023-07-08T07:13:47;101410.78;;;21.90;56.04
42105;BME280;70664;51.472;5.712;2023-07-08T07:16:13;101410.78;;;21.90;55.98
42105;BME280;70664;51.472;5.712;2023-07-08T07:18:39;101408.16;;;21.90;56.33
42105;BME280;70664;51.472;5.712;2023-07-08T07:21:04;101404.66;;;21.91;56.35
42105;BME280;70664;51.472;5.712;2023-07-08T07:23:30;101407.25;;;21.91;56.04
42105;BME280;70664;51.472;5.712;2023-07-08T07:25:56;101402.91;;;21.91;55.93
42105;BME280;70664;51.472;5.712;2023-07-08T07:28:23;101412.47;;;21.92;56.67
42105;BME280;70664;51.472;5.712;2023-07-08T07:30:57;101412.50;;;21.91;56.71
42105;BME280;70664;51.472;5.712;2023-07-08T07:33:23;101407.22;;;21.92;56.50
42105;BME280;70664;51.472;5.712;2023-07-08T07:35:49;101412.41;;;21.94;56.57
42105;BME280;70664;51.472;5.712;2023-07-08T07:38:15;101408.94;;;21.93;56.62
42105;BME280;70664;51.472;5.712;2023-07-08T07:40:42;101400.22;;;21.93;56.29
42105;BME280;70664;51.472;5.712;2023-07-08T07:43:08;101408.06;;;21.93;56.68
42105;BME280;70664;51.472;5.712;2023-07-08T07:45:34;101411.56;;;21.93;56.81
42105;BME280;70664;51.472;5.712;2023-07-08T07:48:00;101415.06;;;21.92;56.41
42105;BME280;70664;51.472;5.712;2023-07-08T07:50:26;101413.31;;;21.93;56.56
42105;BME280;70664;51.472;5.712;2023-07-08T07:52:52;101411.56;;;21.93;56.61
42105;BME280;70664;51.472;5.712;2023-07-08T07:55:18;101406.34;;;21.92;56.84
42105;BME280;70664;51.472;5.712;2023-07-08T07:57:44;101406.34;;;21.92;56.99
42105;BME280;70664;51.472;5.712;2023-07-08T08:00:11;101409.84;;;21.92;56.84
42105;BME280;70664;51.472;5.712;2023-07-08T08:02:40;101416.78;;;21.93;56.62
42105;BME280;70664;51.472;5.712;2023-07-08T08:05:06;101410.69;;;21.93;56.62
42105;BME280;70664;51.472;5.712;2023-07-08T08:07:32;101415.06;;;21.92;56.79
42105;BME280;70664;51.472;5.712;2023-07-08T08:09:58;101414.16;;;21.93;56.88
42105;BME280;70664;51.472;5.712;2023-07-08T08:12:24;101406.31;;;21.93;57.02
42105;BME280;70664;51.472;5.712;2023-07-08T08:14:51;101406.31;;;21.93;56.77
42105;BME280;70664;51.472;5.712;2023-07-08T08:17:17;101403.63;;;21.95;56.69
42105;BME280;70664;51.472;5.712;2023-07-08T08:19:43;101415.88;;;21.94;56.60
42105;BME280;70664;51.472;5.712;2023-07-08T08:22:08;101411.47;;;21.95;56.81
42105;BME280;70664;51.472;5.712;2023-07-08T08:24:34;101421.06;;;21.96;57.05
42105;BME280;70664;51.472;5.712;2023-07-08T08:27:00;101409.75;;;21.95;57.22
42105;BME280;70664;51.472;5.712;2023-07-08T08:29:26;101424.53;;;21.96;56.92
42105;BME280;70664;51.472;5.712;2023-07-08T08:31:51;101413.16;;;21.97;56.62
42105;BME280;70664;51.472;5.712;2023-07-08T08:34:20;101417.41;;;22.00;56.89
42105;BME280;70664;51.472;5.712;2023-07-08T08:36:46;101413.97;;;21.99;57.03
42105;BME280;70664;51.472;5.712;2023-07-08T08:39:11;101414.00;;;21.98;56.71
42105;BME280;70664;51.472;5.712;2023-07-08T08:41:40;101422.72;;;21.98;56.85
42105;BME280;70664;51.472;5.712;2023-07-08T08:44:14;101423.63;;;21.97;56.77
42105;BME280;70664;51.472;5.712;2023-07-08T08:49:25;101426.25;;;21.97;56.92
42105;BME280;70664;51.472;5.712;2023-07-08T08:51:53;101427.06;;;21.99;57.09
42105;BME280;70664;51.472;5.712;2023-07-08T08:54:19;101429.72;;;21.98;57.06
42105;BME280;70664;51.472;5.712;2023-07-08T09:01:53;101423.63;;;21.97;57.29
42105;BME280;70664;51.472;5.712;2023-07-08T09:04:33;101430.50;;;22.00;57.31
42105;BME280;70664;51.472;5.712;2023-07-08T09:07:17;101432.28;;;21.99;57.39
42105;BME280;70664;51.472;5.712;2023-07-08T09:10:01;101430.50;;;22.00;57.35
42105;BME280;70664;51.472;5.712;2023-07-08T09:12:29;101426.19;;;21.99;57.20
42105;BME280;70664;51.472;5.712;2023-07-08T09:14:57;101429.66;;;21.99;57.74
42105;BME280;70664;51.472;5.712;2023-07-08T09:17:29;101418.31;;;21.99;57.64
42105;BME280;70664;51.472;5.712;2023-07-08T09:22:55;101420.94;;;21.99;57.62
42105;BME280;70664;51.472;5.712;2023-07-08T09:25:26;101427.88;;;22.00;57.92
42105;BME280;70664;51.472;5.712;2023-07-08T09:27:56;101427.06;;;21.99;57.82
42105;BME280;70664;51.472;5.712;2023-07-08T09:30:24;101417.41;;;22.00;57.88
42105;BME280;70664;51.472;5.712;2023-07-08T09:32:54;101411.28;;;22.01;58.07
42105;BME280;70664;51.472;5.712;2023-07-08T09:35:25;101417.31;;;22.03;57.55
42105;BME280;70664;51.472;5.712;2023-07-08T09:37:52;101411.19;;;22.03;57.76
42105;BME280;70664;51.472;5.712;2023-07-08T09:40:33;101412.00;;;22.05;57.87
42105;BME280;70664;51.472;5.712;2023-07-08T09:45:45;101416.44;;;22.03;58.08
42105;BME280;70664;51.472;5.712;2023-07-08T09:48:43;101411.19;;;22.03;57.96
42105;BME280;70664;51.472;5.712;2023-07-08T09:51:09;101406.03;;;22.01;57.94
42105;BME280;70664;51.472;5.712;2023-07-08T09:53:38;101398.19;;;22.01;58.26
42105;BME280;70664;51.472;5.712;2023-07-08T09:56:04;101398.19;;;22.01;58.28
42105;BME280;70664;51.472;5.712;2023-07-08T09:58:39;101404.28;;;22.02;58.26
42105;BME280;70664;51.472;5.712;2023-07-08T10:01:26;101410.38;;;22.02;58.48
42105;BME280;70664;51.472;5.712;2023-07-08T10:03:58;101406.03;;;22.01;58.27
42105;BME280;70664;51.472;5.712;2023-07-08T10:06:32;101407.81;;;22.00;58.37
42105;BME280;70664;51.472;5.712;2023-07-08T10:09:11;101405.19;;;22.00;58.65
42105;BME280;70664;51.472;5.712;2023-07-08T10:11:44;101402.56;;;22.00;58.44
42105;BME280;70664;51.472;5.712;2023-07-08T10:14:37;101406.03;;;22.01;58.08
42105;BME280;70664;51.472;5.712;2023-07-08T10:17:05;101411.19;;;22.03;58.46
42105;BME280;70664;51.472;5.712;2023-07-08T10:19:31;101406.03;;;22.01;58.46
42105;BME280;70664;51.472;5.712;2023-07-08T10:22:34;101408.66;;;22.01;58.26
42105;BME280;70664;51.472;5.712;2023-07-08T10:28:37;101410.03;;;22.11;57.88
42105;BME280;70664;51.472;5.712;2023-07-08T10:31:25;101414.25;;;22.15;57.66
42105;BME280;70664;51.472;5.712;2023-07-08T10:34:53;101410.34;;;22.27;57.54
42105;BME280;70664;51.472;5.712;2023-07-08T10:49:20;101405.66;;;22.59;56.58
42105;BME280;70664;51.472;5.712;2023-07-08T11:05:44;101413.94;;;22.49;57.42
42105;BME280;70664;51.472;5.712;2023-07-08T11:08:43;101414.28;;;22.63;56.91
42105;BME280;70664;51.472;5.712;2023-07-08T11:14:09;101412.59;;;22.60;56.97
42105;BME280;70664;51.472;5.712;2023-07-08T11:16:45;101400.59;;;22.55;57.29
42105;BME280;70664;51.472;5.712;2023-07-08T11:19:26;101403.63;;;22.44;57.52
42105;BME280;70664;51.472;5.712;2023-07-08T11:21:59;101400.28;;;22.39;57.87
42105;BME280;70664;51.472;5.712;2023-07-08T11:24:47;101398.09;;;22.52;57.51
42105;BME280;70664;51.472;5.712;2023-07-08T11:27:26;101400.59;;;22.55;57.82
42105;BME280;70664;51.472;5.712;2023-07-08T11:32:36;101403.53;;;22.47;58.84
42105;BME280;70664;51.472;5.712;2023-07-08T11:35:05;101398.16;;;22.50;58.72
42105;BME280;70664;51.472;5.712;2023-07-08T11:37:34;101402.88;;;22.64;58.59
42105;BME280;70664;51.472;5.712;2023-07-08T11:40:20;101401.63;;;22.51;58.84
42105;BME280;70664;51.472;5.712;2023-07-08T11:42:52;101407.25;;;22.64;58.69
42105;BME280;70664;51.472;5.712;2023-07-08T11:47:49;101406.31;;;22.66;58.84
42105;BME280;70664;51.472;5.712;2023-07-08T11:50:22;101397.53;;;22.67;59.04
42105;BME280;70664;51.472;5.712;2023-07-08T11:53:03;101397.63;;;22.64;58.82
42105;BME280;70664;51.472;5.712;2023-07-08T11:55:46;101392.41;;;22.64;58.99
42105;BME280;70664;51.472;5.712;2023-07-08T12:01:40;101389.91;;;22.61;58.91
42105;BME280;70664;51.472;5.712;2023-07-08T12:09:25;101379.06;;;22.70;58.67
42105;BME280;70664;51.472;5.712;2023-07-08T12:12:07;101371.31;;;22.67;59.10
42105;BME280;70664;51.472;5.712;2023-07-08T12:14:39;101375.81;;;22.64;59.09
42105;BME280;70664;51.472;5.712;2023-07-08T12:17:12;101373.84;;;22.69;58.69
42105;BME280;70664;51.472;5.712;2023-07-08T12:19:41;101377.09;;;22.75;58.80
42105;BME280;70664;51.472;5.712;2023-07-08T12:22:10;101366.78;;;22.71;58.66
42105;BME280;70664;51.472;5.712;2023-07-08T12:24:38;101361.31;;;22.77;58.66
42105;BME280;70664;51.472;5.712;2023-07-08T12:27:04;101358.50;;;22.82;58.57
42105;BME280;70664;51.472;5.712;2023-07-08T12:29:31;101359.59;;;22.76;58.31
42105;BME280;70664;51.472;5.712;2023-07-08T12:31:58;101360.31;;;22.80;58.69
42105;BME280;70664;51.472;5.712;2023-07-08T12:34:25;101363.75;;;22.82;58.66
42105;BME280;70664;51.472;5.712;2023-07-08T12:36:53;101359.81;;;22.71;58.88
42105;BME280;70664;51.472;5.712;2023-07-08T12:39:19;101355.16;;;22.78;58.32
42105;BME280;70664;51.472;5.712;2023-07-08T12:41:46;101355.75;;;22.85;58.29
42105;BME280;70664;51.472;5.712;2023-07-08T12:44:23;101355.47;;;22.70;58.81
42105;BME280;70664;51.472;5.712;2023-07-08T12:46:53;101354.72;;;22.67;59.12
42105;BME280;70664;51.472;5.712;2023-07-08T12:49:20;101351.94;;;22.71;58.58
42105;BME280;70664;51.472;5.712;2023-07-08T12:51:47;101355.88;;;22.59;59.22
42105;BME280;70664;51.472;5.712;2023-07-08T12:54:14;101353.09;;;22.64;59.19
42105;BME280;70664;51.472;5.712;2023-07-08T12:56:44;101350.34;;;22.67;58.81
42105;BME280;70664;51.472;5.712;2023-07-08T12:59:18;101347.47;;;22.73;58.34
42105;BME280;70664;51.472;5.712;2023-07-08T13:01:46;101355.47;;;22.70;59.00
42105;BME280;70664;51.472;5.712;2023-07-08T13:04:13;101348.81;;;22.84;57.87
42105;BME280;70664;51.472;5.712;2023-07-08T13:06:40;101353.44;;;22.77;58.65
42105;BME280;70664;51.472;5.712;2023-07-08T13:09:39;101351.78;;;22.74;58.45
42105;BME280;70664;51.472;5.712;2023-07-08T13:12:17;101341.38;;;22.73;58.30
42105;BME280;70664;51.472;5.712;2023-07-08T13:14:52;101353.38;;;22.79;57.99
42105;BME280;70664;51.472;5.712;2023-07-08T13:17:19;101359.53;;;22.78;58.27
42105;BME280;70664;51.472;5.712;2023-07-08T13:19:46;101359.81;;;22.71;58.66
42105;BME280;70664;51.472;5.712;2023-07-08T13:22:18;101357.19;;;22.71;58.70
42105;BME280;70664;51.472;5.712;2023-07-08T13:24:46;101349.84;;;22.80;58.16
42105;BME280;70664;51.472;5.712;2023-07-08T13:27:23;101354.84;;;22.86;57.96
42105;BME280;70664;51.472;5.712;2023-07-08T13:29:52;101363.44;;;22.89;58.21
42105;BME280;70664;51.472;5.712;2023-07-08T13:32:18;101356.75;;;22.82;58.34
42105;BME280;70664;51.472;5.712;2023-07-08T13:34:44;101345.38;;;22.82;58.34
42105;BME280;70664;51.472;5.712;2023-07-08T13:37:13;101354.38;;;22.76;58.34
42105;BME280;70664;51.472;5.712;2023-07-08T13:39:43;101347.34;;;22.77;58.58
42105;BME280;70664;51.472;5.712;2023-07-08T13:42:10;101344.72;;;22.77;58.63
42105;BME280;70664;51.472;5.712;2023-07-08T13:44:56;101336.72;;;22.80;58.30
42105;BME280;70664;51.472;5.712;2023-07-08T13:47:27;101345.34;;;22.83;58.04
42105;BME280;70664;51.472;5.712;2023-07-08T13:50:14;101341.97;;;22.80;58.64
42105;BME280;70664;51.472;5.712;2023-07-08T13:52:45;101339.44;;;22.78;58.29
42105;BME280;70664;51.472;5.712;2023-07-08T13:55:18;101343.38;;;22.88;57.99
42105;BME280;70664;51.472;5.712;2023-07-08T13:57:46;101337.41;;;22.85;58.44
42105;BME280;70664;51.472;5.712;2023-07-08T14:00:20;101338.44;;;22.81;58.19
42105;BME280;70664;51.472;5.712;2023-07-08T14:02:46;101341.63;;;22.89;58.25
42105;BME280;70664;51.472;5.712;2023-07-08T14:05:14;101344.59;;;22.80;58.35
42105;BME280;70664;51.472;5.712;2023-07-08T14:07:41;101348.00;;;22.82;58.29
42105;BME280;70664;51.472;5.712;2023-07-08T14:10:12;101341.50;;;22.92;58.21
42105;BME280;70664;51.472;5.712;2023-07-08T14:12:38;101342.53;;;22.88;58.17